Time;durP1;ratioP1;P1;durP2;ratioP2;P2;SDS_P1;SDS_P2;PMS_P1;PMS_P2;Temp;Humidity;BMP_temperature;BMP_pressure;BME280_temperature;BME280_humidity;BME280_pressure;Samples;Min_cycle;Max_cycle;Signal;HPM_P1;HPM_P2
2024/01/14 00:01:47;;;;;;;35.03;19.23;;;2.70;99.90;;;;;;5034810;28;20214;-73
2024/01/14 00:04:13;;;;;;;36.30;19.70;;;2.70;99.90;;;;;;5036365;28;20429;-74
2024/01/14 00:06:38;;;;;;;39.10;20.37;;;2.70;99.90;;;;;;5034431;28;20433;-73
2024/01/14 00:09:04;;;;;;;39.03;21.10;;;2.60;99.90;;;;;;5017755;28;20177;-73
2024/01/14 00:11:30;;;;;;;36.40;18.67;;;2.60;99.90;;;;;;5017527;28;20213;-75
2024/01/14 00:13:55;;;;;;;34.40;20.13;;;2.60;99.90;;;;;;5035292;28;20182;-74
2024/01/14 00:16:21;;;;;;;36.10;18.50;;;2.70;99.90;;;;;;5034487;28;20201;-74
2024/01/14 00:18:47;;;;;;;33.17;17.90;;;2.70;99.90;;;;;;5034426;28;20181;-74
2024/01/14 00:21:13;;;;;;;35.60;17.27;;;2.70;99.90;;;;;;5034838;28;20990;-74
2024/01/14 00:23:39;;;;;;;38.30;18.20;;;2.70;99.90;;;;;;5031722;28;20433;-74
2024/01/14 00:26:04;;;;;;;37.90;18.87;;;2.70;99.90;;;;;;5035201;28;20193;-75
2024/01/14 00:28:30;;;;;;;37.07;20.53;;;2.70;99.90;;;;;;5035124;28;20224;-74
2024/01/14 00:30:56;;;;;;;35.60;19.90;;;2.70;99.90;;;;;;5035344;28;21087;-73
2024/01/14 00:33:21;;;;;;;37.00;18.60;;;2.70;99.90;;;;;;5034259;28;20205;-74
2024/01/14 00:35:47;;;;;;;37.67;20.57;;;2.70;99.90;;;;;;5034045;28;20257;-74
2024/01/14 00:38:15;;;;;;;35.43;18.70;;;2.80;99.90;;;;;;5035563;28;20599;-74
2024/01/14 00:40:40;;;;;;;37.10;20.03;;;2.70;99.90;;;;;;5034290;28;20434;-73
2024/01/14 00:43:06;;;;;;;37.53;19.40;;;2.80;99.90;;;;;;5035557;28;20428;-73
2024/01/14 00:45:32;;;;;;;39.60;21.83;;;2.80;99.90;;;;;;5015271;28;20436;-74
2024/01/14 00:47:57;;;;;;;38.73;21.40;;;2.80;99.90;;;;;;5034235;28;20170;-73
2024/01/14 00:50:23;;;;;;;42.77;20.83;;;2.80;99.90;;;;;;5033785;28;20189;-74
2024/01/14 00:52:49;;;;;;;38.63;20.40;;;2.80;99.90;;;;;;5033901;28;20300;-74
2024/01/14 00:55:15;;;;;;;44.30;21.17;;;2.80;99.90;;;;;;5017051;28;20179;-73
2024/01/14 00:57:40;;;;;;;42.37;20.73;;;2.80;99.90;;;;;;5033977;28;20433;-74
2024/01/14 01:00:09;;;;;;;38.30;21.07;;;2.70;99.90;;;;;;5035341;28;20185;-74
2024/01/14 01:02:35;;;;;;;43.53;22.10;;;2.70;99.90;;;;;;5014154;28;20221;-74
2024/01/14 01:05:02;;;;;;;40.80;21.97;;;2.70;99.90;;;;;;5034443;28;20443;-74
2024/01/14 01:07:28;;;;;;;42.03;20.23;;;2.70;99.90;;;;;;5033966;28;20429;-74
2024/01/14 01:09:54;;;;;;;42.63;20.60;;;2.70;99.90;;;;;;5033960;28;20462;-73
2024/01/14 01:12:19;;;;;;;34.40;19.13;;;2.70;99.90;;;;;;5033751;28;20190;-74
2024/01/14 01:14:47;;;;;;;36.33;21.83;;;2.70;99.90;;;;;;5033648;28;20182;-74
2024/01/14 01:17:13;;;;;;;43.33;20.40;;;2.70;99.90;;;;;;5000994;28;20713;-74
2024/01/14 01:19:38;;;;;;;38.03;19.73;;;2.70;99.90;;;;;;5033704;28;20437;-73
2024/01/14 01:22:04;;;;;;;41.43;20.20;;;2.70;99.90;;;;;;5016680;28;20217;-74
2024/01/14 01:24:30;;;;;;;37.20;19.03;;;2.70;99.90;;;;;;5033734;28;20675;-74
2024/01/14 01:26:55;;;;;;;39.40;19.40;;;2.80;99.90;;;;;;5034170;28;20218;-74
2024/01/14 01:29:21;;;;;;;33.00;18.77;;;2.70;99.90;;;;;;5034551;28;20189;-73
2024/01/14 01:31:47;;;;;;;34.60;18.87;;;2.70;99.90;;;;;;5032247;28;20182;-73
2024/01/14 01:34:12;;;;;;;34.10;20.37;;;2.70;99.90;;;;;;5034292;28;20692;-74
2024/01/14 01:36:38;;;;;;;35.40;19.23;;;2.70;99.90;;;;;;5032993;28;20704;-73
2024/01/14 01:39:04;;;;;;;34.07;17.50;;;2.80;99.90;;;;;;5016551;28;20233;-73
2024/01/14 01:41:29;;;;;;;37.47;18.87;;;2.80;99.90;;;;;;5032089;28;20272;-73
2024/01/14 01:43:55;;;;;;;31.70;17.93;;;2.80;99.90;;;;;;5033105;28;20657;-74
2024/01/14 01:46:21;;;;;;;35.10;19.70;;;2.80;99.90;;;;;;5034173;28;20182;-74
2024/01/14 01:48:47;;;;;;;31.57;19.50;;;2.70;99.90;;;;;;5032874;28;20566;-73
2024/01/14 01:51:14;;;;;;;32.43;17.50;;;2.80;99.90;;;;;;5033780;28;20193;-73
2024/01/14 01:53:40;;;;;;;32.13;17.50;;;2.80;99.90;;;;;;5032776;28;20441;-74
2024/01/14 01:56:06;;;;;;;32.30;18.60;;;2.80;99.90;;;;;;5033565;28;20433;-74
2024/01/14 01:58:32;;;;;;;31.17;17.60;;;2.80;99.90;;;;;;5033127;28;20416;-73
2024/01/14 02:00:58;;;;;;;27.67;15.77;;;2.80;99.90;;;;;;5015549;28;20435;-74
2024/01/14 02:03:24;;;;;;;27.77;16.70;;;2.80;99.90;;;;;;5033517;28;20583;-73
2024/01/14 02:05:54;;;;;;;33.33;18.00;;;2.80;99.90;;;;;;5032392;28;20475;-73
2024/01/14 02:08:20;;;;;;;27.30;15.90;;;2.80;99.90;;;;;;5033496;28;20482;-73
2024/01/14 02:10:46;;;;;;;28.60;15.83;;;2.80;99.90;;;;;;5032530;28;20437;-74
2024/01/14 02:13:12;;;;;;;31.07;17.40;;;2.70;99.90;;;;;;5033514;28;20516;-73
2024/01/14 02:15:37;;;;;;;29.60;16.73;;;2.70;99.90;;;;;;5030750;28;20206;-73
2024/01/14 02:18:03;;;;;;;33.43;17.30;;;2.70;99.90;;;;;;5033644;28;20186;-74
2024/01/14 02:20:29;;;;;;;28.67;16.33;;;2.70;99.90;;;;;;5033103;28;20186;-74
2024/01/14 02:22:56;;;;;;;27.43;16.20;;;2.70;99.90;;;;;;5032650;28;20500;-74
2024/01/14 02:25:22;;;;;;;28.73;16.43;;;2.70;99.90;;;;;;5033165;28;20182;-74
2024/01/14 02:27:49;;;;;;;32.33;18.60;;;2.70;99.90;;;;;;5032732;28;20441;-73
2024/01/14 02:30:15;;;;;;;30.13;16.20;;;2.70;99.90;;;;;;5033772;28;20491;-74
2024/01/14 02:32:40;;;;;;;31.17;16.90;;;2.70;99.90;;;;;;5031477;28;20448;-75
2024/01/14 02:35:06;;;;;;;30.00;16.87;;;2.70;99.90;;;;;;5015343;28;20190;-74
2024/01/14 02:37:32;;;;;;;28.53;17.97;;;2.70;99.90;;;;;;5032765;28;20193;-74
2024/01/14 02:39:58;;;;;;;28.17;16.83;;;2.70;99.90;;;;;;5032611;28;20428;-73
2024/01/14 02:42:24;;;;;;;25.53;15.67;;;2.70;99.90;;;;;;5014736;28;20515;-74
2024/01/14 02:44:49;;;;;;;24.43;13.57;;;2.70;99.90;;;;;;5032156;28;20182;-73
2024/01/14 02:47:15;;;;;;;24.73;14.40;;;2.70;99.90;;;;;;5032932;28;20189;-73
2024/01/14 02:49:41;;;;;;;24.07;14.20;;;2.70;99.90;;;;;;5014495;28;20252;-73
2024/01/14 02:52:07;;;;;;;26.63;14.10;;;2.70;99.90;;;;;;5033036;28;20186;-73
2024/01/14 02:54:33;;;;;;;22.43;13.13;;;2.70;99.90;;;;;;5028334;28;21012;-73
2024/01/14 02:56:58;;;;;;;27.67;14.33;;;2.70;99.90;;;;;;5032311;28;20430;-73
2024/01/14 02:59:24;;;;;;;25.47;14.00;;;2.70;99.90;;;;;;5032954;28;20636;-73
2024/01/14 03:01:50;;;;;;;23.83;14.40;;;2.70;99.90;;;;;;5031646;28;20226;-73
2024/01/14 03:04:15;;;;;;;29.47;16.70;;;2.70;99.90;;;;;;5032281;28;20187;-73
2024/01/14 03:06:41;;;;;;;26.43;15.37;;;2.70;99.90;;;;;;5031742;28;20190;-73
2024/01/14 03:09:07;;;;;;;31.53;17.17;;;2.70;99.90;;;;;;5032885;28;20193;-73
2024/01/14 03:11:33;;;;;;;30.67;17.00;;;2.70;99.90;;;;;;5032291;28;20792;-73
2024/01/14 03:13:59;;;;;;;35.33;18.33;;;2.70;99.90;;;;;;5033756;28;20178;-73
2024/01/14 03:16:24;;;;;;;26.80;16.23;;;2.70;99.90;;;;;;5035479;28;20622;-73
2024/01/14 03:18:50;;;;;;;32.83;16.23;;;2.70;99.90;;;;;;5035931;28;20228;-73
2024/01/14 03:21:19;;;;;;;28.20;16.13;;;2.70;99.90;;;;;;5035978;28;20225;-73
2024/01/14 03:23:45;;;;;;;30.40;16.47;;;2.70;99.90;;;;;;5035099;28;20193;-73
2024/01/14 03:26:11;;;;;;;37.30;19.57;;;2.70;99.90;;;;;;5018012;28;20432;-74
2024/01/14 03:28:37;;;;;;;32.60;18.13;;;2.70;99.90;;;;;;5035272;28;20423;-74
2024/01/14 03:31:03;;;;;;;33.10;18.10;;;2.70;99.90;;;;;;5035891;28;20277;-73
2024/01/14 03:33:28;;;;;;;32.33;17.77;;;2.70;99.90;;;;;;5034893;28;20186;-73
2024/01/14 03:35:54;;;;;;;35.30;19.00;;;2.70;99.90;;;;;;5035748;28;20447;-75
2024/01/14 03:38:20;;;;;;;31.87;16.97;;;2.70;99.90;;;;;;5036041;28;21600;-73
2024/01/14 03:40:46;;;;;;;33.80;18.80;;;2.70;99.90;;;;;;5017669;28;20532;-74
2024/01/14 03:43:12;;;;;;;32.20;16.87;;;2.70;99.90;;;;;;5018849;28;20515;-73
2024/01/14 03:45:37;;;;;;;29.03;16.97;;;2.70;99.90;;;;;;5017458;28;20495;-73
2024/01/14 03:48:04;;;;;;;28.07;16.87;;;2.70;99.90;;;;;;5035678;28;20440;-74
2024/01/14 03:50:29;;;;;;;27.60;15.83;;;2.70;99.90;;;;;;5034813;28;20436;-73
2024/01/14 03:52:55;;;;;;;29.90;17.33;;;2.70;99.90;;;;;;5017437;28;20519;-73
2024/01/14 03:55:21;;;;;;;28.13;16.50;;;2.60;99.90;;;;;;5034861;28;20265;-74
2024/01/14 03:57:46;;;;;;;27.33;16.50;;;2.70;99.90;;;;;;5035387;28;20240;-73
2024/01/14 04:00:13;;;;;;;25.00;14.43;;;2.70;99.90;;;;;;5017583;28;20181;-74
2024/01/14 04:02:39;;;;;;;27.53;15.00;;;2.70;99.90;;;;;;5034780;28;20201;-73
2024/01/14 04:05:05;;;;;;;25.70;15.77;;;2.70;99.90;;;;;;5034388;28;20927;-73
2024/01/14 04:07:30;;;;;;;28.43;16.07;;;2.70;99.90;;;;;;5034674;28;20524;-75
2024/01/14 04:09:56;;;;;;;28.50;16.37;;;2.60;99.90;;;;;;5034897;28;21009;-74
2024/01/14 04:12:22;;;;;;;24.53;14.03;;;2.70;99.90;;;;;;5034849;28;20186;-74
2024/01/14 04:14:48;;;;;;;20.83;12.80;;;2.70;99.90;;;;;;5034914;28;20189;-74
2024/01/14 04:17:14;;;;;;;27.73;14.87;;;2.70;99.90;;;;;;5035018;28;20396;-74
2024/01/14 04:19:40;;;;;;;25.67;14.60;;;2.70;99.90;;;;;;5033906;28;20938;-73
2024/01/14 04:22:06;;;;;;;23.90;14.67;;;2.60;99.90;;;;;;5034823;28;20260;-74
2024/01/14 04:24:31;;;;;;;25.70;14.87;;;2.60;99.90;;;;;;5015638;28;20515;-74
2024/01/14 04:26:57;;;;;;;28.80;15.33;;;2.60;99.90;;;;;;5034056;28;20209;-73
2024/01/14 04:29:23;;;;;;;27.23;15.23;;;2.60;99.90;;;;;;5034441;28;20265;-74
2024/01/14 04:31:48;;;;;;;25.23;15.50;;;2.60;99.90;;;;;;5033947;28;20504;-74
2024/01/14 04:34:14;;;;;;;29.33;15.50;;;2.60;99.90;;;;;;5034194;28;20175;-73
2024/01/14 04:36:40;;;;;;;28.57;14.90;;;2.50;99.90;;;;;;5034020;28;20186;-74
2024/01/14 04:39:05;;;;;;;27.17;16.07;;;2.50;99.90;;;;;;5035125;28;20274;-74
2024/01/14 04:41:31;;;;;;;30.30;16.53;;;2.50;99.90;;;;;;5033996;28;20218;-74
2024/01/14 04:43:56;;;;;;;29.83;16.50;;;2.50;99.90;;;;;;5034067;28;20613;-74
2024/01/14 04:46:22;;;;;;;33.17;18.03;;;2.60;99.90;;;;;;5033616;28;20189;-73
2024/01/14 04:48:48;;;;;;;32.07;17.97;;;2.60;99.90;;;;;;5033897;28;20181;-74
2024/01/14 04:51:14;;;;;;;35.97;19.47;;;2.60;99.90;;;;;;5033872;28;21128;-74
2024/01/14 04:53:39;;;;;;;34.23;20.10;;;2.60;99.90;;;;;;5033225;28;20301;-74
2024/01/14 04:56:09;;;;;;;36.80;18.87;;;2.50;99.90;;;;;;5034867;28;20186;-75
2024/01/14 04:58:36;;;;;;;38.53;20.07;;;2.50;99.90;;;;;;5033951;28;20193;-73
2024/01/14 05:01:02;;;;;;;38.80;20.43;;;2.60;99.90;;;;;;5033951;28;20869;-75
2024/01/14 05:03:28;;;;;;;39.83;21.33;;;2.60;99.90;;;;;;5034522;28;20459;-74
2024/01/14 05:05:53;;;;;;;38.17;19.50;;;2.60;99.90;;;;;;5033787;28;20465;-73
2024/01/14 05:08:19;;;;;;;35.57;19.10;;;2.60;99.90;;;;;;5034034;28;20227;-73
2024/01/14 05:10:45;;;;;;;38.17;19.20;;;2.60;99.90;;;;;;5015492;28;20193;-74
2024/01/14 05:13:11;;;;;;;42.67;20.63;;;2.60;99.90;;;;;;5033650;28;20182;-74
2024/01/14 05:15:38;;;;;;;36.20;19.97;;;2.60;99.90;;;;;;5032677;28;20621;-73
2024/01/14 05:18:04;;;;;;;37.00;20.03;;;2.60;99.90;;;;;;5031754;28;20494;-74
2024/01/14 05:20:29;;;;;;;34.00;17.70;;;2.60;99.90;;;;;;5032165;28;20433;-73
2024/01/14 05:22:55;;;;;;;37.27;19.10;;;2.60;99.90;;;;;;5015900;28;20210;-74
2024/01/14 05:25:21;;;;;;;34.13;18.63;;;2.60;99.90;;;;;;5032377;28;20190;-73
2024/01/14 05:27:47;;;;;;;34.90;19.47;;;2.60;99.90;;;;;;5033171;28;20628;-74
2024/01/14 05:30:13;;;;;;;36.40;19.17;;;2.60;99.90;;;;;;5032697;28;20498;-74
2024/01/14 05:32:39;;;;;;;41.40;21.40;;;2.60;99.90;;;;;;5000044;28;20218;-74
2024/01/14 05:35:05;;;;;;;39.83;20.73;;;2.60;99.90;;;;;;5033361;28;20453;-74
2024/01/14 05:37:31;;;;;;;39.47;21.53;;;2.60;99.90;;;;;;5032184;28;20433;-74
2024/01/14 05:39:57;;;;;;;38.60;21.10;;;2.60;99.90;;;;;;5033107;28;20433;-74
2024/01/14 05:42:23;;;;;;;35.47;20.77;;;2.60;99.90;;;;;;5032073;28;20479;-74
2024/01/14 05:44:49;;;;;;;38.73;19.40;;;2.50;99.90;;;;;;5032563;28;20425;-73
2024/01/14 05:47:14;;;;;;;43.67;22.13;;;2.50;99.90;;;;;;5014365;28;20193;-74
2024/01/14 05:49:40;;;;;;;38.73;20.43;;;2.50;99.90;;;;;;5032108;28;20186;-73
2024/01/14 05:52:06;;;;;;;41.57;20.63;;;2.50;99.90;;;;;;5032510;28;20194;-74
2024/01/14 05:54:32;;;;;;;36.30;18.87;;;2.50;99.90;;;;;;5032219;28;20239;-74
2024/01/14 05:56:57;;;;;;;43.43;22.43;;;2.50;99.90;;;;;;5033029;28;20499;-74
2024/01/14 05:59:23;;;;;;;45.43;22.40;;;2.60;99.90;;;;;;5031765;28;20773;-74
2024/01/14 06:01:49;;;;;;;39.90;21.83;;;2.60;99.90;;;;;;5014740;28;20472;-74
2024/01/14 06:04:15;;;;;;;43.27;22.53;;;2.50;99.90;;;;;;5032082;28;20452;-74
2024/01/14 06:06:40;;;;;;;42.07;21.60;;;2.50;99.90;;;;;;5032600;28;20252;-74
2024/01/14 06:09:06;;;;;;;39.67;20.40;;;2.50;99.90;;;;;;5032144;28;20186;-74
2024/01/14 06:11:32;;;;;;;38.77;21.03;;;2.60;99.90;;;;;;5032219;28;20182;-73
2024/01/14 06:13:57;;;;;;;49.17;22.53;;;2.60;99.90;;;;;;5032137;28;20182;-74
2024/01/14 06:16:25;;;;;;;40.10;20.37;;;2.60;99.90;;;;;;5031245;28;20199;-74
2024/01/14 06:18:50;;;;;;;36.00;19.40;;;2.70;99.90;;;;;;5031952;28;20580;-75
2024/01/14 06:21:16;;;;;;;40.90;22.43;;;2.60;99.90;;;;;;5031379;28;20556;-74
2024/01/14 06:23:42;;;;;;;42.43;21.73;;;2.60;99.90;;;;;;5032450;28;20525;-73
2024/01/14 06:26:14;;;;;;;42.13;20.93;;;2.60;99.90;;;;;;5033176;28;20232;-74
2024/01/14 06:28:39;;;;;;;37.63;20.53;;;2.60;99.90;;;;;;5033434;28;20186;-74
2024/01/14 06:31:07;;;;;;;39.57;19.57;;;2.60;99.90;;;;;;5014638;28;20543;-74
2024/01/14 06:33:33;;;;;;;38.40;19.53;;;2.60;99.90;;;;;;5014845;28;20192;-74
2024/01/14 06:35:59;;;;;;;37.80;19.40;;;2.60;99.90;;;;;;5032421;28;20990;-73
2024/01/14 06:38:24;;;;;;;36.80;18.43;;;2.60;99.90;;;;;;5032605;28;20190;-73
2024/01/14 06:40:50;;;;;;;36.80;19.30;;;2.60;99.90;;;;;;5032516;28;20182;-74
2024/01/14 06:43:16;;;;;;;35.70;17.97;;;2.60;99.90;;;;;;5032268;28;20194;-73
2024/01/14 06:45:42;;;;;;;34.27;17.70;;;2.60;99.90;;;;;;5032816;28;20428;-74
2024/01/14 06:48:08;;;;;;;32.13;18.23;;;2.60;99.90;;;;;;5015142;28;20194;-74
2024/01/14 06:50:34;;;;;;;30.77;16.50;;;2.60;99.90;;;;;;5037073;28;20213;-74
2024/01/14 06:52:59;;;;;;;33.27;17.30;;;2.60;99.90;;;;;;5036476;28;20544;-73
2024/01/14 06:55:25;;;;;;;30.53;16.63;;;2.60;99.90;;;;;;5036395;28;20185;-74
2024/01/14 06:57:50;;;;;;;29.30;17.03;;;2.60;99.90;;;;;;5035513;28;20185;-73
2024/01/14 07:00:16;;;;;;;32.33;16.50;;;2.60;99.90;;;;;;5036660;28;20193;-74
2024/01/14 07:02:42;;;;;;;32.33;17.83;;;2.60;99.90;;;;;;5036662;28;20207;-74
2024/01/14 07:05:09;;;;;;;31.27;16.80;;;2.60;99.90;;;;;;5036034;28;20670;-73
2024/01/14 07:07:35;;;;;;;32.90;19.13;;;2.60;99.90;;;;;;5037327;28;20186;-73
2024/01/14 07:10:01;;;;;;;41.30;20.10;;;2.60;99.90;;;;;;5035833;28;20447;-74
2024/01/14 07:12:27;;;;;;;43.00;20.93;;;2.60;99.90;;;;;;5036478;28;20429;-73
2024/01/14 07:14:52;;;;;;;37.20;20.07;;;2.60;99.90;;;;;;5036078;28;20190;-73
2024/01/14 07:17:19;;;;;;;39.40;20.33;;;2.70;99.90;;;;;;5035661;28;20441;-72
2024/01/14 07:19:44;;;;;;;36.90;19.70;;;2.70;99.90;;;;;;5018909;28;20235;-74
2024/01/14 07:22:10;;;;;;;36.47;19.70;;;2.70;99.90;;;;;;5035284;28;21112;-73
2024/01/14 07:24:36;;;;;;;39.57;20.40;;;2.60;99.90;;;;;;5036677;28;20191;-74
2024/01/14 07:27:02;;;;;;;39.67;20.33;;;2.60;99.90;;;;;;5035608;28;20720;-73
2024/01/14 07:29:28;;;;;;;38.03;20.73;;;2.60;99.90;;;;;;5036370;28;20425;-73
2024/01/14 07:31:54;;;;;;;41.20;20.27;;;2.60;99.90;;;;;;5036270;28;20439;-73
2024/01/14 07:34:20;;;;;;;36.87;19.40;;;2.60;99.90;;;;;;5035051;28;20878;-74
2024/01/14 07:36:46;;;;;;;36.67;19.63;;;2.60;99.90;;;;;;5033038;28;20467;-73
2024/01/14 07:39:12;;;;;;;38.80;19.10;;;2.60;99.90;;;;;;5033957;28;20180;-73
2024/01/14 07:41:39;;;;;;;35.40;19.77;;;2.60;99.90;;;;;;5036030;28;20301;-74
2024/01/14 07:44:05;;;;;;;36.13;19.33;;;2.60;99.90;;;;;;5001640;28;20533;-73
2024/01/14 07:46:31;;;;;;;38.33;20.90;;;2.60;99.90;;;;;;5034451;28;20487;-74
2024/01/14 07:48:57;;;;;;;36.93;18.60;;;2.60;99.90;;;;;;5034888;28;20417;-74
2024/01/14 07:51:23;;;;;;;34.57;17.77;;;2.60;99.90;;;;;;5018552;28;20459;-74
2024/01/14 07:53:49;;;;;;;35.50;18.47;;;2.60;99.90;;;;;;5033837;28;20440;-74
2024/01/14 07:56:14;;;;;;;34.97;19.07;;;2.60;99.90;;;;;;5034571;28;20185;-74
2024/01/14 07:58:40;;;;;;;43.60;21.50;;;2.60;99.90;;;;;;5033777;28;20190;-74
2024/01/14 08:01:08;;;;;;;40.13;18.47;;;2.60;99.90;;;;;;5033755;28;20182;-74
2024/01/14 08:03:35;;;;;;;35.70;18.50;;;2.60;99.90;;;;;;5035001;28;20233;-75
2024/01/14 08:06:01;;;;;;;35.77;18.60;;;2.60;99.90;;;;;;5033896;28;20433;-74
2024/01/14 08:08:27;;;;;;;37.47;18.40;;;2.60;99.90;;;;;;5029009;28;20495;-73
2024/01/14 08:10:53;;;;;;;39.63;19.20;;;2.60;99.90;;;;;;5033587;28;20428;-73
2024/01/14 08:13:19;;;;;;;40.37;19.23;;;2.60;99.90;;;;;;5033814;28;20413;-75
2024/01/14 08:15:45;;;;;;;37.73;18.63;;;2.60;99.90;;;;;;5034698;28;20791;-74
2024/01/14 08:18:11;;;;;;;40.40;18.97;;;2.60;99.90;;;;;;5034025;28;20190;-75
2024/01/14 08:20:37;;;;;;;35.17;18.30;;;2.60;99.90;;;;;;5017576;28;21250;-74
2024/01/14 08:23:02;;;;;;;37.67;20.13;;;2.60;99.90;;;;;;5033537;28;20214;-74
2024/01/14 08:25:28;;;;;;;34.27;17.10;;;2.60;99.90;;;;;;5035172;28;20186;-74
2024/01/14 08:27:55;;;;;;;38.77;19.10;;;2.50;99.90;;;;;;5033997;28;20193;-73
2024/01/14 08:30:21;;;;;;;32.47;17.90;;;2.50;99.90;;;;;;5033894;28;20865;-74
2024/01/14 08:32:46;;;;;;;28.17;16.20;;;2.50;99.90;;;;;;5034798;28;20425;-73
2024/01/14 08:35:13;;;;;;;29.13;17.00;;;2.50;99.90;;;;;;5014041;28;20938;-74
2024/01/14 08:37:42;;;;;;;33.27;16.10;;;2.60;99.90;;;;;;5029413;28;20245;-73
2024/01/14 08:40:09;;;;;;;27.13;14.80;;;2.60;99.90;;;;;;5032583;28;20516;-75
2024/01/14 08:42:35;;;;;;;31.27;15.93;;;2.60;99.90;;;;;;5035461;28;21048;-73
2024/01/14 08:45:02;;;;;;;32.60;15.27;;;2.60;99.90;;;;;;5015267;28;20552;-75
2024/01/14 08:47:28;;;;;;;30.33;14.87;;;2.60;99.90;;;;;;5033338;28;20301;-75
2024/01/14 08:49:54;;;;;;;30.83;15.40;;;2.60;99.90;;;;;;5024444;28;20457;-75
2024/01/14 08:52:20;;;;;;;27.00;14.50;;;2.60;99.90;;;;;;5013031;28;20452;-75
2024/01/14 08:54:45;;;;;;;31.47;15.30;;;2.60;99.90;;;;;;5032189;28;20244;-75
2024/01/14 08:57:12;;;;;;;33.23;16.90;;;2.60;99.90;;;;;;5031904;28;20730;-75
2024/01/14 08:59:38;;;;;;;29.00;15.57;;;2.60;99.90;;;;;;5032456;28;20256;-75
2024/01/14 09:02:03;;;;;;;32.87;17.00;;;2.60;99.90;;;;;;5031749;28;21056;-75
2024/01/14 09:04:29;;;;;;;28.90;15.30;;;2.60;99.90;;;;;;5033535;28;20672;-75
2024/01/14 09:06:55;;;;;;;24.70;15.67;;;2.60;99.90;;;;;;5032020;28;20182;-75
2024/01/14 09:09:21;;;;;;;30.33;16.10;;;2.60;99.90;;;;;;5033058;28;20190;-74
2024/01/14 09:11:46;;;;;;;32.93;16.97;;;2.60;99.90;;;;;;5033181;28;20177;-72
2024/01/14 09:14:12;;;;;;;32.17;16.07;;;2.60;99.90;;;;;;5032337;28;20523;-74
2024/01/14 09:16:38;;;;;;;29.23;15.07;;;2.60;99.90;;;;;;5031994;28;20213;-74
2024/01/14 09:19:03;;;;;;;37.77;18.17;;;2.60;99.90;;;;;;5031732;28;20784;-74
2024/01/14 09:21:29;;;;;;;36.40;17.97;;;2.60;99.90;;;;;;5033501;28;20296;-73
2024/01/14 09:23:55;;;;;;;36.63;17.87;;;2.60;99.90;;;;;;5027399;28;20202;-74
2024/01/14 09:26:20;;;;;;;37.03;18.20;;;2.60;99.90;;;;;;5031948;28;20186;-74
2024/01/14 09:28:46;;;;;;;36.40;18.20;;;2.60;99.90;;;;;;5033994;28;20254;-74
2024/01/14 09:31:12;;;;;;;39.47;19.30;;;2.60;99.90;;;;;;5029986;28;20181;-74
2024/01/14 09:33:38;;;;;;;32.80;17.47;;;2.60;99.90;;;;;;5013288;28;20943;-73
2024/01/14 09:36:08;;;;;;;31.80;18.03;;;2.60;99.90;;;;;;5029084;28;20437;-74
2024/01/14 09:38:34;;;;;;;29.77;16.60;;;2.50;99.90;;;;;;5028697;28;20185;-73
2024/01/14 09:41:16;;;;;;;34.77;16.43;;;2.60;99.90;;;;;;5027794;28;20474;-74
2024/01/14 09:43:48;;;;;;;35.03;17.77;;;2.60;99.90;;;;;;5031409;28;20440;-74
2024/01/14 09:46:14;;;;;;;33.20;17.60;;;2.50;99.90;;;;;;5027654;28;20441;-73
2024/01/14 09:48:40;;;;;;;33.03;17.13;;;2.50;99.90;;;;;;5027836;28;20981;-74
2024/01/14 09:51:08;;;;;;;29.07;15.83;;;2.50;99.90;;;;;;5025736;28;20221;-73
2024/01/14 09:53:36;;;;;;;31.43;16.90;;;2.60;99.90;;;;;;5028925;28;20439;-73
2024/01/14 09:56:07;;;;;;;27.20;14.57;;;2.50;99.90;;;;;;5027128;28;20499;-73
2024/01/14 09:58:34;;;;;;;27.47;14.60;;;2.50;99.90;;;;;;4999261;28;20438;-73
2024/01/14 10:01:03;;;;;;;25.10;13.10;;;2.50;99.90;;;;;;5001920;28;20530;-73
2024/01/14 10:03:28;;;;;;;28.67;15.33;;;2.60;99.90;;;;;;5028556;28;20516;-73
2024/01/14 10:05:55;;;;;;;29.47;14.40;;;2.50;99.90;;;;;;5031228;28;20421;-74
2024/01/14 10:08:21;;;;;;;24.33;13.23;;;2.50;99.90;;;;;;5031809;28;20186;-74
2024/01/14 10:10:53;;;;;;;21.30;13.37;;;2.50;99.90;;;;;;5032156;28;21073;-74
2024/01/14 10:13:22;;;;;;;25.77;14.03;;;2.50;99.90;;;;;;5030670;28;20417;-74
2024/01/14 10:15:48;;;;;;;26.73;13.97;;;2.50;99.90;;;;;;5011738;28;20448;-74
2024/01/14 10:18:17;;;;;;;24.53;13.73;;;2.50;99.90;;;;;;5011476;28;21024;-73
2024/01/14 10:20:43;;;;;;;26.37;14.27;;;2.50;99.90;;;;;;5029204;28;20511;-73
2024/01/14 10:23:08;;;;;;;24.47;13.03;;;2.50;99.90;;;;;;5030387;28;21189;-74
2024/01/14 10:25:34;;;;;;;25.07;14.23;;;2.50;99.90;;;;;;5031171;28;20223;-74
2024/01/14 10:28:07;;;;;;;29.03;15.27;;;2.50;99.90;;;;;;5032385;28;20210;-73
2024/01/14 10:30:33;;;;;;;26.97;14.70;;;2.50;99.90;;;;;;5015255;28;20735;-74
2024/01/14 10:32:58;;;;;;;26.00;13.90;;;2.50;99.90;;;;;;5030283;28;20427;-72
2024/01/14 10:35:24;;;;;;;26.67;15.27;;;2.50;99.90;;;;;;5030913;28;20523;-73
2024/01/14 10:37:50;;;;;;;26.63;14.27;;;2.50;99.90;;;;;;5031668;28;20186;-73
2024/01/14 10:40:17;;;;;;;27.57;14.43;;;2.50;99.90;;;;;;5012796;28;20491;-74
2024/01/14 10:42:44;;;;;;;27.73;15.47;;;2.40;99.90;;;;;;5030575;28;20240;-73
2024/01/14 10:45:10;;;;;;;22.00;12.40;;;2.40;99.90;;;;;;5027451;28;20436;-74
2024/01/14 10:47:36;;;;;;;24.40;13.60;;;2.40;99.90;;;;;;5030077;28;20449;-74
2024/01/14 10:50:05;;;;;;;23.67;13.50;;;2.40;99.90;;;;;;5029755;28;20575;-73
2024/01/14 10:52:35;;;;;;;20.87;12.03;;;2.40;99.90;;;;;;5030255;28;20439;-74
2024/01/14 10:55:22;;;;;;;22.17;11.70;;;2.40;99.90;;;;;;5028896;28;20515;-73
2024/01/14 10:57:51;;;;;;;26.17;12.87;;;2.50;99.90;;;;;;5028943;28;20467;-73
2024/01/14 11:00:18;;;;;;;21.90;13.67;;;2.50;99.90;;;;;;5027431;28;20416;-74
2024/01/14 11:02:45;;;;;;;19.87;10.63;;;2.50;99.90;;;;;;5024613;28;20529;-73
2024/01/14 11:05:12;;;;;;;19.50;11.47;;;2.50;99.90;;;;;;5024777;28;21234;-73
2024/01/14 11:07:37;;;;;;;16.77;10.67;;;2.50;99.90;;;;;;5025480;28;20440;-74
2024/01/14 11:10:07;;;;;;;15.53;10.90;;;2.40;99.90;;;;;;5008702;28;20432;-74
2024/01/14 11:13:00;;;;;;;16.97;9.43;;;2.50;99.90;;;;;;5028555;28;20199;-73
2024/01/14 11:16:06;;;;;;;17.93;9.70;;;2.50;99.90;;;;;;5009968;28;21009;-74
2024/01/14 11:18:38;;;;;;;16.30;8.83;;;2.50;99.90;;;;;;5030676;28;20447;-74
2024/01/14 11:21:20;;;;;;;16.50;9.87;;;2.40;99.90;;;;;;5000543;28;20429;-74
2024/01/14 11:23:47;;;;;;;20.50;10.70;;;2.40;99.90;;;;;;5029102;28;20450;-74
2024/01/14 11:26:13;;;;;;;16.07;9.60;;;2.40;99.90;;;;;;5026799;28;20473;-73
2024/01/14 11:28:44;;;;;;;16.90;8.77;;;2.40;99.90;;;;;;5028063;28;20869;-74
2024/01/14 11:31:10;;;;;;;16.17;8.47;;;2.40;99.90;;;;;;5010471;28;20640;-73
2024/01/14 11:33:40;;;;;;;12.07;8.57;;;2.40;99.90;;;;;;5029166;28;20523;-74
2024/01/14 11:36:07;;;;;;;13.80;9.33;;;2.40;99.90;;;;;;5014351;28;20432;-74
2024/01/14 11:38:35;;;;;;;13.70;7.70;;;2.40;99.90;;;;;;5028154;28;20440;-74
2024/01/14 11:41:35;;;;;;;14.00;9.17;;;2.50;99.90;;;;;;5029202;28;20453;-73
2024/01/14 11:44:08;;;;;;;16.97;9.40;;;2.50;99.90;;;;;;5011630;28;21115;-74
2024/01/14 11:46:34;;;;;;;12.10;8.70;;;2.50;99.90;;;;;;5030906;28;20432;-73
2024/01/14 11:49:03;;;;;;;14.30;8.27;;;2.50;99.90;;;;;;5006115;28;20426;-75
2024/01/14 11:51:31;;;;;;;14.30;8.90;;;2.50;99.90;;;;;;5031183;28;20177;-73
2024/01/14 11:53:59;;;;;;;11.57;7.93;;;2.50;99.90;;;;;;5032032;28;20483;-73
2024/01/14 11:56:29;;;;;;;11.43;7.70;;;2.40;99.90;;;;;;5032765;28;20428;-75
2024/01/14 11:58:58;;;;;;;13.00;8.50;;;2.40;99.90;;;;;;5027475;28;20547;-73
2024/01/14 12:01:24;;;;;;;12.00;8.00;;;2.40;99.90;;;;;;5012264;28;20472;-73
2024/01/14 12:04:04;;;;;;;13.13;7.37;;;2.40;99.90;;;;;;5030180;28;20531;-73
2024/01/14 12:06:43;;;;;;;11.53;7.30;;;2.40;99.90;;;;;;5032433;28;21005;-74
2024/01/14 12:09:11;;;;;;;13.23;8.80;;;2.40;99.90;;;;;;5032076;28;20810;-73
2024/01/14 12:11:37;;;;;;;13.83;8.67;;;2.40;99.90;;;;;;5034585;28;20436;-74
2024/01/14 12:14:04;;;;;;;17.17;9.47;;;2.40;99.90;;;;;;5033521;28;20432;-74
2024/01/14 12:16:31;;;;;;;16.17;10.07;;;2.40;99.90;;;;;;5030283;28;20457;-75
2024/01/14 12:18:56;;;;;;;17.80;11.07;;;2.40;99.90;;;;;;5033288;28;20433;-75
2024/01/14 12:21:23;;;;;;;15.43;9.50;;;2.40;99.90;;;;;;5032207;28;20442;-74
2024/01/14 12:23:50;;;;;;;17.90;10.10;;;2.40;99.90;;;;;;5014889;28;21045;-75
2024/01/14 12:26:17;;;;;;;18.60;11.60;;;2.40;99.90;;;;;;5032059;28;21098;-75
2024/01/14 12:28:43;;;;;;;15.33;9.73;;;2.40;99.90;;;;;;5032871;28;20469;-74
2024/01/14 12:31:19;;;;;;;18.23;9.63;;;2.40;99.90;;;;;;5002521;28;20925;-75
2024/01/14 12:33:48;;;;;;;15.80;9.77;;;2.30;99.90;;;;;;5030315;28;20524;-74
2024/01/14 12:36:14;;;;;;;17.67;9.87;;;2.40;99.90;;;;;;5032397;28;20433;-74